createdAt,value
2018-12-20T00:00:58.133Z,92.15
2018-12-20T00:04:05.227Z,92.11
2018-12-20T00:27:34.411Z,92.75
2018-12-20T01:00:28.632Z,92.64
2018-12-20T01:38:53.171Z,92.52
2018-12-20T02:33:55.002Z,92.52
2018-12-20T02:36:23.681Z,92.19
2018-12-20T02:38:53.323Z,92.10
2018-12-20T02:41:21.875Z,92.45
2018-12-20T02:43:50.967Z,92.34
2018-12-20T02:46:20.506Z,92.64
2018-12-20T02:48:48.987Z,93.08
2018-12-20T02:51:17.590Z,93.23
2018-12-20T02:53:47.008Z,93.58
2018-12-20T02:56:15.646Z,93.74
2018-12-20T02:58:44.332Z,94.21
2018-12-20T03:07:03.200Z,94.67
2018-12-20T03:13:45.723Z,94.17
2018-12-20T03:16:14.644Z,94.67
2018-12-20T03:25:16.468Z,94.87
2018-12-20T03:48:03.789Z,94.98
2018-12-20T03:50:32.255Z,94.87
2018-12-20T03:53:01.434Z,94.72
2018-12-20T03:55:29.881Z,95.00
2018-12-20T03:57:58.476Z,94.67
2018-12-20T04:00:26.875Z,95.14
2018-12-20T04:02:55.103Z,94.80
2018-12-20T04:05:24.523Z,94.62
2018-12-20T04:10:56.047Z,94.41
2018-12-20T04:53:47.841Z,95.34
2018-12-20T04:56:39.611Z,94.95
2018-12-20T04:59:14.646Z,94.79
2018-12-20T05:01:43.830Z,94.95
2018-12-20T05:04:19.038Z,94.96
2018-12-20T05:06:47.920Z,95.11
2018-12-20T05:09:17.047Z,95.44
2018-12-20T05:14:47.632Z,95.38
2018-12-20T06:19:22.378Z,95.38
2018-12-20T06:22:45.179Z,95.71
2018-12-20T06:25:36.095Z,95.27
2018-12-20T06:28:27.194Z,95.70
2018-12-20T06:34:49.826Z,95.80
2018-12-20T06:40:29.108Z,95.73
2018-12-20T06:43:20.324Z,95.86
2018-12-20T06:49:49.087Z,95.30
2018-12-20T06:57:17.404Z,95.56
2018-12-20T06:59:45.600Z,95.29
2018-12-20T07:02:13.888Z,95.55
2018-12-20T07:04:43.248Z,95.52
2018-12-20T07:07:11.506Z,95.33
2018-12-20T07:20:47.621Z,95.83
2018-12-20T07:23:15.994Z,95.63
2018-12-20T07:25:44.456Z,95.62
2018-12-20T07:28:13.849Z,96.01
2018-12-20T08:41:57.231Z,96.18
2018-12-20T08:50:52.662Z,96.09
2018-12-20T08:53:31.513Z,96.02
2018-12-20T08:59:41.258Z,95.90
2018-12-20T09:16:48.381Z,95.76
2018-12-20T09:19:34.676Z,95.99
2018-12-20T09:22:08.538Z,95.78
2018-12-20T09:24:39.305Z,95.94
2018-12-20T09:27:10.345Z,95.74
2018-12-20T09:29:43.787Z,95.99
2018-12-20T09:32:15.853Z,95.75
2018-12-20T09:34:51.772Z,96.01
2018-12-20T09:37:20.811Z,96.00
2018-12-20T09:39:52.457Z,95.66
2018-12-20T09:42:30.621Z,95.88
2018-12-20T09:48:04.349Z,95.40
2018-12-20T09:57:01.502Z,95.95
2018-12-20T09:59:35.217Z,95.69
2018-12-20T10:02:11.705Z,95.82
2018-12-20T10:04:52.109Z,95.90
2018-12-20T10:27:18.210Z,95.42
2018-12-20T10:29:53.857Z,95.67
2018-12-20T10:32:28.159Z,95.68
2018-12-20T10:38:00.830Z,95.22
2018-12-20T10:40:37.755Z,95.48
2018-12-20T11:03:42.011Z,95.29
2018-12-20T11:09:06.751Z,95.11
2018-12-20T11:11:43.416Z,95.48
2018-12-20T11:14:11.613Z,94.99
2018-12-20T11:16:39.777Z,95.03
2018-12-20T11:22:01.000Z,95.20
2018-12-20T11:24:29.328Z,95.15
2018-12-20T11:26:57.702Z,95.01
2018-12-20T11:29:26.108Z,94.79
2018-12-20T11:31:54.333Z,94.61
2018-12-20T11:34:22.511Z,94.43
2018-12-20T11:36:50.683Z,94.23
2018-12-20T11:39:19.344Z,94.76
2018-12-20T11:41:47.548Z,94.35
2018-12-20T11:44:16.814Z,93.91
2018-12-20T11:46:45.037Z,94.02
2018-12-20T11:49:13.315Z,94.24
2018-12-20T11:51:41.640Z,94.18
2018-12-20T11:54:18.598Z,94.22
2018-12-20T11:56:46.855Z,94.00
2018-12-20T11:59:15.161Z,94.13
2018-12-20T12:01:44.459Z,94.39
2018-12-20T12:04:13.254Z,94.15
2018-12-20T12:06:41.489Z,94.33
2018-12-20T12:09:09.839Z,94.38
2018-12-20T12:11:38.690Z,93.92
2018-12-20T12:14:06.985Z,93.87
2018-12-20T12:16:35.202Z,93.53
2018-12-20T12:19:03.436Z,93.92
2018-12-20T12:21:31.642Z,94.04
2018-12-20T12:23:59.916Z,93.99
2018-12-20T12:26:28.280Z,93.64
2018-12-20T12:28:56.537Z,93.80
2018-12-20T12:31:24.768Z,93.87
2018-12-20T12:33:54.082Z,93.62
2018-12-20T12:36:23.604Z,93.64
2018-12-20T13:01:32.345Z,94.36
2018-12-20T13:04:00.572Z,94.86
2018-12-20T13:06:28.960Z,94.97
2018-12-20T13:08:57.204Z,94.66
2018-12-20T13:11:25.560Z,94.79
2018-12-20T13:13:53.781Z,94.40
2018-12-20T13:16:21.970Z,94.88
2018-12-20T13:18:50.226Z,95.02
2018-12-20T13:21:19.292Z,94.66
2018-12-20T13:23:47.719Z,94.55
2018-12-20T13:26:17.132Z,94.32
2018-12-20T13:29:07.740Z,94.94
2018-12-20T13:31:36.205Z,94.76
2018-12-20T13:34:04.623Z,94.55
2018-12-20T13:36:32.910Z,94.57
2018-12-20T13:39:01.202Z,94.89
2018-12-20T13:41:29.361Z,94.57
2018-12-20T13:43:57.627Z,94.82
2018-12-20T13:46:25.773Z,94.75
2018-12-20T13:48:54.018Z,95.07
2018-12-20T13:51:22.426Z,95.26
2018-12-20T13:53:51.783Z,95.63
2018-12-20T13:56:20.245Z,95.62
2018-12-20T13:58:48.522Z,95.58
2018-12-20T14:01:16.678Z,95.73
2018-12-20T14:03:44.982Z,95.59
2018-12-20T14:06:13.228Z,95.75
2018-12-20T14:08:42.574Z,96.04
2018-12-20T14:11:10.906Z,96.02
2018-12-20T14:16:43.073Z,96.32
2018-12-20T14:19:33.938Z,96.54
2018-12-20T14:22:25.047Z,96.33
2018-12-20T14:42:10.919Z,96.02
2018-12-20T14:46:56.323Z,96.53
2018-12-20T14:52:26.345Z,96.13
2018-12-20T14:54:54.645Z,96.10
2018-12-20T14:57:22.856Z,96.30
2018-12-20T14:59:51.022Z,96.31
2018-12-20T15:02:19.305Z,96.30
2018-12-20T15:04:47.506Z,95.98
2018-12-20T15:07:15.710Z,96.23
2018-12-20T15:09:43.900Z,96.11
2018-12-20T15:12:12.059Z,96.45
2018-12-20T15:14:40.229Z,95.99
2018-12-20T15:17:09.219Z,96.13
2018-12-20T15:19:40.947Z,96.13
2018-12-20T15:22:09.193Z,96.17
2018-12-20T15:24:37.422Z,95.99
2018-12-20T15:27:05.685Z,96.40
2018-12-20T15:29:33.896Z,96.51
2018-12-20T15:32:02.165Z,96.60
2018-12-20T15:34:30.328Z,96.43
2018-12-20T15:36:58.862Z,96.50
2018-12-20T15:39:27.034Z,96.70
2018-12-20T15:41:55.353Z,96.82
2018-12-20T15:44:26.495Z,96.61
2018-12-20T15:46:55.329Z,96.38
2018-12-20T15:52:32.254Z,96.43
2018-12-20T16:08:32.283Z,96.56
2018-12-20T16:14:47.567Z,96.29
2018-12-20T16:17:45.736Z,96.79
2018-12-20T16:23:23.808Z,96.60
2018-12-20T16:25:53.113Z,96.65
2018-12-20T16:28:21.357Z,96.56
2018-12-20T16:30:49.681Z,96.46
2018-12-20T16:36:01.985Z,96.51
2018-12-20T18:11:16.521Z,96.37
2018-12-20T19:04:00.191Z,96.21
2018-12-20T19:06:28.453Z,95.66
2018-12-20T19:08:56.679Z,95.76
2018-12-20T19:34:04.153Z,95.83
2018-12-20T19:40:33.048Z,95.45
2018-12-20T19:52:55.301Z,95.74
2018-12-20T19:55:46.217Z,95.66
2018-12-20T20:06:28.755Z,95.06
2018-12-20T20:09:11.199Z,95.42
2018-12-20T20:11:39.496Z,94.84
2018-12-20T20:14:09.038Z,95.12
2018-12-20T20:16:38.372Z,94.89
2018-12-20T20:19:06.540Z,95.02
2018-12-20T20:21:35.889Z,94.80
2018-12-20T20:24:06.497Z,94.93
2018-12-20T20:26:37.925Z,94.74
2018-12-20T20:29:06.181Z,95.00
2018-12-20T20:31:35.238Z,94.85
2018-12-20T20:34:03.933Z,94.76
2018-12-20T20:36:32.802Z,94.89
2018-12-20T20:39:02.025Z,94.64
2018-12-20T20:41:31.248Z,94.40
2018-12-20T20:59:21.986Z,94.84
2018-12-20T21:04:43.696Z,94.89
2018-12-20T21:07:15.204Z,94.58
2018-12-20T21:09:47.661Z,94.70
2018-12-20T21:12:22.998Z,94.97
2018-12-20T21:15:05.956Z,95.10
2018-12-20T21:17:43.938Z,95.49
2018-12-20T21:20:19.245Z,95.75
2018-12-20T21:22:49.298Z,95.60
2018-12-20T21:25:26.310Z,95.61
2018-12-20T21:28:07.815Z,95.78
2018-12-20T21:30:50.978Z,95.63
2018-12-20T21:33:23.407Z,96.16
2018-12-20T21:35:56.727Z,96.25
2018-12-20T21:38:30.633Z,96.09
2018-12-20T21:40:59.643Z,96.48
2018-12-20T21:43:36.203Z,96.18
2018-12-20T21:46:07.991Z,96.01
2018-12-20T21:48:41.284Z,96.01
2018-12-20T21:51:20.986Z,96.22
2018-12-20T21:56:41.062Z,96.00
2018-12-20T21:59:22.528Z,96.53
2018-12-20T22:21:29.188Z,96.21
2018-12-20T22:23:59.197Z,96.61
2018-12-20T22:26:27.420Z,96.39
2018-12-20T22:28:57.355Z,96.35
2018-12-20T22:31:25.837Z,96.29
2018-12-20T22:33:54.145Z,96.36
2018-12-20T22:36:22.343Z,96.54
2018-12-20T22:38:53.899Z,96.69
2018-12-20T22:41:31.464Z,96.35
2018-12-20T22:47:23.377Z,96.23
2018-12-20T22:59:05.313Z,96.28
2018-12-20T23:05:17.539Z,96.13
2018-12-20T23:07:51.230Z,96.09
2018-12-20T23:10:41.485Z,95.88
2018-12-20T23:13:17.923Z,95.93
2018-12-20T23:16:09.151Z,96.14
2018-12-20T23:19:07.700Z,95.94
2018-12-20T23:26:04.549Z,96.14
2018-12-20T23:28:41.449Z,96.29
2018-12-20T23:31:15.912Z,96.34
2018-12-20T23:33:56.132Z,96.26
2018-12-20T23:36:28.704Z,95.88
2018-12-20T23:39:01.903Z,96.42
2018-12-20T23:48:03.076Z,95.99
2018-12-20T23:51:36.579Z,96.41
2018-12-20T23:59:27.708Z,96.34
